sensor_id;sensor_type;location;lat;lon;timestamp;P1;durP1;ratioP1;P2;durP2;ratioP2
76373;SDS011;65197;50.164;8.012;2022-12-07T00:01:32;22.63;;;9.68;;
76373;SDS011;65197;50.164;8.012;2022-12-07T00:03:59;24.58;;;9.57;;
76373;SDS011;65197;50.164;8.012;2022-12-07T00:06:29;26.42;;;10.55;;
76373;SDS011;65197;50.164;8.012;2022-12-07T00:08:56;22.75;;;9.63;;
76373;SDS011;65197;50.164;8.012;2022-12-07T00:11:22;23.10;;;9.98;;
76373;SDS011;65197;50.164;8.012;2022-12-07T00:13:52;17.25;;;8.13;;
76373;SDS011;65197;50.164;8.012;2022-12-07T00:16:20;21.10;;;8.68;;
76373;SDS011;65197;50.164;8.012;2022-12-07T00:18:46;24.20;;;9.88;;
76373;SDS011;65197;50.164;8.012;2022-12-07T00:21:13;25.05;;;9.77;;
76373;SDS011;65197;50.164;8.012;2022-12-07T00:23:44;21.25;;;9.20;;
76373;SDS011;65197;50.164;8.012;2022-12-07T00:26:11;24.30;;;8.95;;
76373;SDS011;65197;50.164;8.012;2022-12-07T00:28:38;24.17;;;9.23;;
76373;SDS011;65197;50.164;8.012;2022-12-07T00:31:06;20.65;;;8.07;;
76373;SDS011;65197;50.164;8.012;2022-12-07T00:33:33;20.73;;;8.80;;
76373;SDS011;65197;50.164;8.012;2022-12-07T00:35:59;21.92;;;9.52;;
76373;SDS011;65197;50.164;8.012;2022-12-07T00:38:27;25.90;;;9.13;;
76373;SDS011;65197;50.164;8.012;2022-12-07T00:40:57;22.88;;;9.88;;
76373;SDS011;65197;50.164;8.012;2022-12-07T00:43:24;20.67;;;9.23;;
76373;SDS011;65197;50.164;8.012;2022-12-07T00:45:49;23.35;;;9.15;;
76373;SDS011;65197;50.164;8.012;2022-12-07T00:48:15;22.13;;;9.23;;
76373;SDS011;65197;50.164;8.012;2022-12-07T00:50:40;22.00;;;8.38;;
76373;SDS011;65197;50.164;8.012;2022-12-07T00:53:05;24.40;;;9.75;;
76373;SDS011;65197;50.164;8.012;2022-12-07T00:55:34;26.67;;;10.10;;
76373;SDS011;65197;50.164;8.012;2022-12-07T00:58:00;26.65;;;9.40;;
76373;SDS011;65197;50.164;8.012;2022-12-07T01:00:25;23.45;;;8.93;;
76373;SDS011;65197;50.164;8.012;2022-12-07T01:02:52;21.05;;;8.75;;
76373;SDS011;65197;50.164;8.012;2022-12-07T01:05:17;19.85;;;8.48;;
76373;SDS011;65197;50.164;8.012;2022-12-07T01:07:43;24.00;;;7.95;;
76373;SDS011;65197;50.164;8.012;2022-12-07T01:13:24;28.58;;;7.95;;
76373;SDS011;65197;50.164;8.012;2022-12-07T01:15:49;24.35;;;7.10;;
76373;SDS011;65197;50.164;8.012;2022-12-07T01:18:15;24.83;;;7.63;;
76373;SDS011;65197;50.164;8.012;2022-12-07T01:20:40;33.78;;;7.50;;
76373;SDS011;65197;50.164;8.012;2022-12-07T01:23:06;16.65;;;5.40;;
76373;SDS011;65197;50.164;8.012;2022-12-07T01:25:31;22.30;;;7.35;;
76373;SDS011;65197;50.164;8.012;2022-12-07T01:27:57;18.02;;;5.97;;
76373;SDS011;65197;50.164;8.012;2022-12-07T01:30:22;43.63;;;8.93;;
76373;SDS011;65197;50.164;8.012;2022-12-07T01:32:48;74.63;;;9.80;;
76373;SDS011;65197;50.164;8.012;2022-12-07T01:35:13;45.00;;;7.85;;
76373;SDS011;65197;50.164;8.012;2022-12-07T01:37:38;43.92;;;7.75;;
76373;SDS011;65197;50.164;8.012;2022-12-07T01:40:05;26.20;;;6.30;;
76373;SDS011;65197;50.164;8.012;2022-12-07T01:42:32;32.03;;;6.50;;
76373;SDS011;65197;50.164;8.012;2022-12-07T01:48:01;16.30;;;5.50;;
76373;SDS011;65197;50.164;8.012;2022-12-07T01:50:27;15.18;;;5.75;;
76373;SDS011;65197;50.164;8.012;2022-12-07T01:52:56;16.63;;;6.35;;
76373;SDS011;65197;50.164;8.012;2022-12-07T01:55:27;19.85;;;7.47;;
76373;SDS011;65197;50.164;8.012;2022-12-07T01:57:53;17.75;;;7.40;;
76373;SDS011;65197;50.164;8.012;2022-12-07T02:00:20;18.02;;;6.95;;
76373;SDS011;65197;50.164;8.012;2022-12-07T02:02:51;38.30;;;9.50;;
76373;SDS011;65197;50.164;8.012;2022-12-07T02:05:20;18.40;;;7.20;;
76373;SDS011;65197;50.164;8.012;2022-12-07T02:07:47;26.20;;;8.18;;
76373;SDS011;65197;50.164;8.012;2022-12-07T02:12:40;103.05;;;13.40;;
76373;SDS011;65197;50.164;8.012;2022-12-07T02:15:06;138.15;;;15.82;;
76373;SDS011;65197;50.164;8.012;2022-12-07T02:17:38;124.00;;;14.27;;
76373;SDS011;65197;50.164;8.012;2022-12-07T02:20:21;65.80;;;11.07;;
76373;SDS011;65197;50.164;8.012;2022-12-07T02:28:37;121.82;;;13.60;;
76373;SDS011;65197;50.164;8.012;2022-12-07T02:31:19;113.80;;;14.48;;
76373;SDS011;65197;50.164;8.012;2022-12-07T02:33:48;91.05;;;13.80;;
76373;SDS011;65197;50.164;8.012;2022-12-07T02:36:27;76.20;;;10.85;;
76373;SDS011;65197;50.164;8.012;2022-12-07T02:44:05;63.90;;;10.98;;
76373;SDS011;65197;50.164;8.012;2022-12-07T02:46:38;155.40;;;17.85;;
76373;SDS011;65197;50.164;8.012;2022-12-07T02:49:07;104.38;;;13.25;;
76373;SDS011;65197;50.164;8.012;2022-12-07T02:51:38;36.20;;;9.77;;
76373;SDS011;65197;50.164;8.012;2022-12-07T02:54:12;117.38;;;14.85;;
76373;SDS011;65197;50.164;8.012;2022-12-07T02:56:41;73.68;;;12.18;;
76373;SDS011;65197;50.164;8.012;2022-12-07T03:10:15;108.53;;;14.98;;
76373;SDS011;65197;50.164;8.012;2022-12-07T03:20:43;93.78;;;14.98;;
76373;SDS011;65197;50.164;8.012;2022-12-07T03:23:10;67.05;;;14.60;;
76373;SDS011;65197;50.164;8.012;2022-12-07T03:25:39;106.43;;;17.15;;
76373;SDS011;65197;50.164;8.012;2022-12-07T03:28:08;101.47;;;16.20;;
76373;SDS011;65197;50.164;8.012;2022-12-07T03:30:42;66.20;;;13.57;;
76373;SDS011;65197;50.164;8.012;2022-12-07T03:33:10;58.95;;;14.63;;
76373;SDS011;65197;50.164;8.012;2022-12-07T03:35:43;78.18;;;15.13;;
76373;SDS011;65197;50.164;8.012;2022-12-07T03:38:24;333.05;;;35.38;;
76373;SDS011;65197;50.164;8.012;2022-12-07T03:43:31;177.23;;;21.30;;
76373;SDS011;65197;50.164;8.012;2022-12-07T03:49:00;145.15;;;20.80;;
76373;SDS011;65197;50.164;8.012;2022-12-07T03:51:43;121.05;;;17.40;;
76373;SDS011;65197;50.164;8.012;2022-12-07T03:54:26;100.00;;;17.60;;
76373;SDS011;65197;50.164;8.012;2022-12-07T03:56:56;57.03;;;14.07;;
76373;SDS011;65197;50.164;8.012;2022-12-07T03:59:23;42.55;;;13.38;;
76373;SDS011;65197;50.164;8.012;2022-12-07T04:01:56;51.95;;;14.88;;
76373;SDS011;65197;50.164;8.012;2022-12-07T04:04:26;54.42;;;14.43;;
76373;SDS011;65197;50.164;8.012;2022-12-07T04:06:51;42.70;;;12.90;;
76373;SDS011;65197;50.164;8.012;2022-12-07T04:09:17;178.57;;;23.00;;
76373;SDS011;65197;50.164;8.012;2022-12-07T04:11:43;77.18;;;15.80;;
76373;SDS011;65197;50.164;8.012;2022-12-07T04:14:08;96.05;;;16.92;;
76373;SDS011;65197;50.164;8.012;2022-12-07T04:16:43;118.60;;;18.77;;
76373;SDS011;65197;50.164;8.012;2022-12-07T04:19:22;60.10;;;14.63;;
76373;SDS011;65197;50.164;8.012;2022-12-07T04:21:49;80.22;;;16.38;;
76373;SDS011;65197;50.164;8.012;2022-12-07T04:24:15;107.57;;;16.90;;
76373;SDS011;65197;50.164;8.012;2022-12-07T04:26:41;42.28;;;13.48;;
76373;SDS011;65197;50.164;8.012;2022-12-07T04:29:07;52.08;;;14.88;;
76373;SDS011;65197;50.164;8.012;2022-12-07T04:31:33;62.55;;;16.23;;
76373;SDS011;65197;50.164;8.012;2022-12-07T04:33:59;88.82;;;15.73;;
76373;SDS011;65197;50.164;8.012;2022-12-07T04:36:24;50.55;;;15.48;;
76373;SDS011;65197;50.164;8.012;2022-12-07T04:38:52;85.82;;;16.58;;
76373;SDS011;65197;50.164;8.012;2022-12-07T04:41:18;47.15;;;12.95;;
76373;SDS011;65197;50.164;8.012;2022-12-07T04:43:44;85.20;;;15.90;;
76373;SDS011;65197;50.164;8.012;2022-12-07T04:46:09;88.10;;;16.55;;
76373;SDS011;65197;50.164;8.012;2022-12-07T04:48:35;40.10;;;12.90;;
76373;SDS011;65197;50.164;8.012;2022-12-07T04:51:01;82.70;;;15.60;;
76373;SDS011;65197;50.164;8.012;2022-12-07T04:53:28;103.53;;;17.42;;
76373;SDS011;65197;50.164;8.012;2022-12-07T04:55:53;92.00;;;16.90;;
76373;SDS011;65197;50.164;8.012;2022-12-07T04:58:19;127.25;;;19.00;;
76373;SDS011;65197;50.164;8.012;2022-12-07T05:00:44;53.80;;;15.73;;
76373;SDS011;65197;50.164;8.012;2022-12-07T05:03:09;67.32;;;16.45;;
76373;SDS011;65197;50.164;8.012;2022-12-07T05:05:35;111.53;;;19.65;;
76373;SDS011;65197;50.164;8.012;2022-12-07T05:08:00;63.15;;;15.73;;
76373;SDS011;65197;50.164;8.012;2022-12-07T05:10:26;106.90;;;18.15;;
76373;SDS011;65197;50.164;8.012;2022-12-07T05:12:51;79.88;;;16.17;;
76373;SDS011;65197;50.164;8.012;2022-12-07T05:15:16;67.60;;;15.60;;
76373;SDS011;65197;50.164;8.012;2022-12-07T05:17:42;56.80;;;14.23;;
76373;SDS011;65197;50.164;8.012;2022-12-07T05:20:07;38.03;;;12.43;;
76373;SDS011;65197;50.164;8.012;2022-12-07T05:22:34;40.97;;;13.50;;
76373;SDS011;65197;50.164;8.012;2022-12-07T05:24:59;33.08;;;12.73;;
76373;SDS011;65197;50.164;8.012;2022-12-07T05:27:24;42.90;;;13.32;;
76373;SDS011;65197;50.164;8.012;2022-12-07T05:29:50;31.20;;;12.02;;
76373;SDS011;65197;50.164;8.012;2022-12-07T05:32:16;40.40;;;13.07;;
76373;SDS011;65197;50.164;8.012;2022-12-07T05:34:42;38.55;;;12.55;;
76373;SDS011;65197;50.164;8.012;2022-12-07T05:37:07;40.67;;;11.68;;
76373;SDS011;65197;50.164;8.012;2022-12-07T05:39:32;25.88;;;11.57;;
76373;SDS011;65197;50.164;8.012;2022-12-07T05:41:58;25.50;;;10.88;;
76373;SDS011;65197;50.164;8.012;2022-12-07T05:44:39;26.05;;;10.70;;
76373;SDS011;65197;50.164;8.012;2022-12-07T05:47:08;26.98;;;11.48;;
76373;SDS011;65197;50.164;8.012;2022-12-07T05:49:34;25.30;;;9.95;;
76373;SDS011;65197;50.164;8.012;2022-12-07T05:51:59;27.02;;;10.32;;
76373;SDS011;65197;50.164;8.012;2022-12-07T05:54:25;58.25;;;11.40;;
76373;SDS011;65197;50.164;8.012;2022-12-07T05:56:51;34.30;;;10.75;;
76373;SDS011;65197;50.164;8.012;2022-12-07T05:59:16;25.58;;;9.65;;
76373;SDS011;65197;50.164;8.012;2022-12-07T06:01:55;46.13;;;11.70;;
76373;SDS011;65197;50.164;8.012;2022-12-07T06:04:23;39.83;;;9.70;;
76373;SDS011;65197;50.164;8.012;2022-12-07T06:06:49;29.75;;;9.20;;
76373;SDS011;65197;50.164;8.012;2022-12-07T06:09:15;29.70;;;9.90;;
76373;SDS011;65197;50.164;8.012;2022-12-07T06:11:41;150.80;;;18.55;;
76373;SDS011;65197;50.164;8.012;2022-12-07T06:14:25;33.88;;;10.98;;
76373;SDS011;65197;50.164;8.012;2022-12-07T06:16:51;65.40;;;12.73;;
76373;SDS011;65197;50.164;8.012;2022-12-07T06:19:16;102.10;;;15.27;;
76373;SDS011;65197;50.164;8.012;2022-12-07T06:21:42;136.75;;;16.60;;
76373;SDS011;65197;50.164;8.012;2022-12-07T06:24:09;77.05;;;12.95;;
76373;SDS011;65197;50.164;8.012;2022-12-07T06:26:36;246.00;;;27.25;;
76373;SDS011;65197;50.164;8.012;2022-12-07T06:29:01;99.00;;;15.32;;
76373;SDS011;65197;50.164;8.012;2022-12-07T06:31:27;72.82;;;12.73;;
76373;SDS011;65197;50.164;8.012;2022-12-07T06:33:56;84.95;;;13.52;;
76373;SDS011;65197;50.164;8.012;2022-12-07T06:36:23;113.88;;;16.08;;
76373;SDS011;65197;50.164;8.012;2022-12-07T06:38:48;88.03;;;14.50;;
76373;SDS011;65197;50.164;8.012;2022-12-07T06:41:13;22.92;;;9.18;;
76373;SDS011;65197;50.164;8.012;2022-12-07T06:43:39;23.73;;;8.32;;
76373;SDS011;65197;50.164;8.012;2022-12-07T06:46:04;24.95;;;8.57;;
76373;SDS011;65197;50.164;8.012;2022-12-07T06:48:30;34.35;;;10.73;;
76373;SDS011;65197;50.164;8.012;2022-12-07T06:50:55;51.13;;;12.38;;
76373;SDS011;65197;50.164;8.012;2022-12-07T06:53:21;131.23;;;17.05;;
76373;SDS011;65197;50.164;8.012;2022-12-07T06:55:46;121.97;;;16.90;;
76373;SDS011;65197;50.164;8.012;2022-12-07T06:58:12;84.72;;;15.52;;
76373;SDS011;65197;50.164;8.012;2022-12-07T07:00:37;31.30;;;11.02;;
76373;SDS011;65197;50.164;8.012;2022-12-07T07:03:03;104.82;;;14.73;;
76373;SDS011;65197;50.164;8.012;2022-12-07T07:05:28;91.20;;;15.57;;
76373;SDS011;65197;50.164;8.012;2022-12-07T07:07:53;170.45;;;19.33;;
76373;SDS011;65197;50.164;8.012;2022-12-07T07:10:19;42.50;;;11.35;;
76373;SDS011;65197;50.164;8.012;2022-12-07T07:12:44;159.98;;;22.08;;
76373;SDS011;65197;50.164;8.012;2022-12-07T07:15:10;122.70;;;17.27;;
76373;SDS011;65197;50.164;8.012;2022-12-07T07:17:36;73.28;;;13.15;;
76373;SDS011;65197;50.164;8.012;2022-12-07T07:20:02;58.60;;;12.52;;
76373;SDS011;65197;50.164;8.012;2022-12-07T07:22:27;21.08;;;8.55;;
76373;SDS011;65197;50.164;8.012;2022-12-07T07:24:52;30.08;;;9.98;;
76373;SDS011;65197;50.164;8.012;2022-12-07T07:27:18;45.10;;;10.38;;
76373;SDS011;65197;50.164;8.012;2022-12-07T07:29:43;41.70;;;11.27;;
76373;SDS011;65197;50.164;8.012;2022-12-07T07:32:09;57.15;;;12.73;;
76373;SDS011;65197;50.164;8.012;2022-12-07T07:34:34;38.15;;;10.68;;
76373;SDS011;65197;50.164;8.012;2022-12-07T07:36:59;24.92;;;9.45;;
76373;SDS011;65197;50.164;8.012;2022-12-07T07:39:25;23.40;;;9.43;;
76373;SDS011;65197;50.164;8.012;2022-12-07T07:41:50;20.75;;;9.23;;
76373;SDS011;65197;50.164;8.012;2022-12-07T07:44:16;28.42;;;11.32;;
76373;SDS011;65197;50.164;8.012;2022-12-07T07:46:41;21.77;;;9.30;;
76373;SDS011;65197;50.164;8.012;2022-12-07T07:49:07;24.55;;;9.88;;
76373;SDS011;65197;50.164;8.012;2022-12-07T07:51:35;26.05;;;11.30;;
76373;SDS011;65197;50.164;8.012;2022-12-07T07:54:00;27.77;;;9.77;;
76373;SDS011;65197;50.164;8.012;2022-12-07T07:56:26;21.88;;;9.10;;
76373;SDS011;65197;50.164;8.012;2022-12-07T07:58:52;17.58;;;8.02;;
76373;SDS011;65197;50.164;8.012;2022-12-07T08:01:18;26.60;;;9.23;;
76373;SDS011;65197;50.164;8.012;2022-12-07T08:03:47;19.92;;;8.13;;
76373;SDS011;65197;50.164;8.012;2022-12-07T08:06:12;37.95;;;10.15;;
76373;SDS011;65197;50.164;8.012;2022-12-07T08:08:38;20.30;;;8.43;;
76373;SDS011;65197;50.164;8.012;2022-12-07T08:11:07;28.80;;;9.95;;
76373;SDS011;65197;50.164;8.012;2022-12-07T08:13:33;20.88;;;9.25;;
76373;SDS011;65197;50.164;8.012;2022-12-07T08:15:59;31.75;;;14.43;;
76373;SDS011;65197;50.164;8.012;2022-12-07T08:18:29;23.25;;;9.13;;
76373;SDS011;65197;50.164;8.012;2022-12-07T08:21:00;23.88;;;8.75;;
76373;SDS011;65197;50.164;8.012;2022-12-07T08:23:26;17.05;;;7.93;;
76373;SDS011;65197;50.164;8.012;2022-12-07T08:25:52;14.65;;;6.63;;
76373;SDS011;65197;50.164;8.012;2022-12-07T08:28:17;14.07;;;6.00;;
76373;SDS011;65197;50.164;8.012;2022-12-07T08:30:42;11.18;;;5.90;;
76373;SDS011;65197;50.164;8.012;2022-12-07T08:33:08;12.27;;;6.18;;
76373;SDS011;65197;50.164;8.012;2022-12-07T08:35:34;15.25;;;6.70;;
76373;SDS011;65197;50.164;8.012;2022-12-07T08:37:59;18.98;;;7.90;;
76373;SDS011;65197;50.164;8.012;2022-12-07T08:40:27;24.40;;;8.65;;
76373;SDS011;65197;50.164;8.012;2022-12-07T08:42:52;25.67;;;12.57;;
76373;SDS011;65197;50.164;8.012;2022-12-07T08:45:18;26.42;;;9.70;;
76373;SDS011;65197;50.164;8.012;2022-12-07T08:48:00;18.77;;;9.07;;
76373;SDS011;65197;50.164;8.012;2022-12-07T08:50:35;20.35;;;7.78;;
76373;SDS011;65197;50.164;8.012;2022-12-07T08:53:02;18.70;;;9.45;;
76373;SDS011;65197;50.164;8.012;2022-12-07T08:55:31;28.77;;;11.27;;
76373;SDS011;65197;50.164;8.012;2022-12-07T08:57:58;30.83;;;11.43;;
76373;SDS011;65197;50.164;8.012;2022-12-07T09:00:24;23.73;;;10.32;;
76373;SDS011;65197;50.164;8.012;2022-12-07T09:02:51;31.35;;;10.50;;
76373;SDS011;65197;50.164;8.012;2022-12-07T09:05:16;19.13;;;8.95;;
76373;SDS011;65197;50.164;8.012;2022-12-07T09:07:43;17.52;;;7.93;;
76373;SDS011;65197;50.164;8.012;2022-12-07T09:10:11;17.75;;;8.15;;
76373;SDS011;65197;50.164;8.012;2022-12-07T09:12:36;18.50;;;8.10;;
76373;SDS011;65197;50.164;8.012;2022-12-07T09:15:08;16.70;;;8.13;;
76373;SDS011;65197;50.164;8.012;2022-12-07T09:17:34;16.73;;;7.63;;
76373;SDS011;65197;50.164;8.012;2022-12-07T09:20:00;18.17;;;8.77;;
76373;SDS011;65197;50.164;8.012;2022-12-07T09:22:29;20.95;;;8.07;;
76373;SDS011;65197;50.164;8.012;2022-12-07T09:24:58;39.95;;;10.75;;
76373;SDS011;65197;50.164;8.012;2022-12-07T09:27:24;19.85;;;9.07;;
76373;SDS011;65197;50.164;8.012;2022-12-07T09:29:49;22.55;;;8.65;;
76373;SDS011;65197;50.164;8.012;2022-12-07T09:32:15;22.73;;;9.35;;
76373;SDS011;65197;50.164;8.012;2022-12-07T09:34:41;29.95;;;10.00;;
76373;SDS011;65197;50.164;8.012;2022-12-07T09:37:06;19.90;;;9.60;;
76373;SDS011;65197;50.164;8.012;2022-12-07T09:39:32;21.67;;;10.40;;
76373;SDS011;65197;50.164;8.012;2022-12-07T09:41:58;20.85;;;9.05;;
76373;SDS011;65197;50.164;8.012;2022-12-07T09:44:27;22.50;;;10.23;;
76373;SDS011;65197;50.164;8.012;2022-12-07T09:46:53;22.02;;;10.10;;
76373;SDS011;65197;50.164;8.012;2022-12-07T09:49:21;16.00;;;8.48;;
76373;SDS011;65197;50.164;8.012;2022-12-07T09:51:57;19.70;;;8.70;;
76373;SDS011;65197;50.164;8.012;2022-12-07T09:54:46;15.68;;;8.02;;
76373;SDS011;65197;50.164;8.012;2022-12-07T09:57:13;20.90;;;7.88;;
76373;SDS011;65197;50.164;8.012;2022-12-07T09:59:39;16.90;;;8.13;;
76373;SDS011;65197;50.164;8.012;2022-12-07T10:05:06;14.70;;;7.38;;
76373;SDS011;65197;50.164;8.012;2022-12-07T10:07:37;16.10;;;7.47;;
76373;SDS011;65197;50.164;8.012;2022-12-07T10:10:03;14.95;;;7.72;;
76373;SDS011;65197;50.164;8.012;2022-12-07T10:12:35;12.05;;;6.03;;
76373;SDS011;65197;50.164;8.012;2022-12-07T10:15:21;12.68;;;7.78;;
76373;SDS011;65197;50.164;8.012;2022-12-07T10:17:50;17.92;;;7.28;;
76373;SDS011;65197;50.164;8.012;2022-12-07T10:20:18;12.38;;;6.97;;
76373;SDS011;65197;50.164;8.012;2022-12-07T10:23:19;12.68;;;6.22;;
76373;SDS011;65197;50.164;8.012;2022-12-07T10:25:42;13.05;;;5.82;;
76373;SDS011;65197;50.164;8.012;2022-12-07T10:30:53;13.90;;;6.53;;
76373;SDS011;65197;50.164;8.012;2022-12-07T10:35:57;12.50;;;6.25;;
76373;SDS011;65197;50.164;8.012;2022-12-07T10:38:24;12.02;;;5.63;;
76373;SDS011;65197;50.164;8.012;2022-12-07T10:41:02;15.23;;;5.97;;
76373;SDS011;65197;50.164;8.012;2022-12-07T10:43:29;11.52;;;5.55;;
76373;SDS011;65197;50.164;8.012;2022-12-07T10:51:58;10.45;;;4.60;;
76373;SDS011;65197;50.164;8.012;2022-12-07T11:02:30;8.32;;;5.05;;
76373;SDS011;65197;50.164;8.012;2022-12-07T11:05:20;9.77;;;5.05;;
76373;SDS011;65197;50.164;8.012;2022-12-07T11:19:16;8.52;;;4.65;;
76373;SDS011;65197;50.164;8.012;2022-12-07T11:22:09;11.57;;;5.35;;
76373;SDS011;65197;50.164;8.012;2022-12-07T11:24:56;11.90;;;5.35;;
76373;SDS011;65197;50.164;8.012;2022-12-07T11:30:06;11.85;;;6.45;;
76373;SDS011;65197;50.164;8.012;2022-12-07T11:35:22;11.95;;;6.60;;
76373;SDS011;65197;50.164;8.012;2022-12-07T11:37:59;11.68;;;5.80;;
76373;SDS011;65197;50.164;8.012;2022-12-07T11:40:33;13.02;;;8.52;;
76373;SDS011;65197;50.164;8.012;2022-12-07T11:43:24;31.95;;;15.63;;
76373;SDS011;65197;50.164;8.012;2022-12-07T11:46:03;18.30;;;10.25;;
76373;SDS011;65197;50.164;8.012;2022-12-07T11:48:57;9.57;;;5.18;;
76373;SDS011;65197;50.164;8.012;2022-12-07T11:51:38;9.73;;;4.00;;
76373;SDS011;65197;50.164;8.012;2022-12-07T11:54:17;9.23;;;4.38;;
76373;SDS011;65197;50.164;8.012;2022-12-07T11:56:50;21.73;;;14.18;;
76373;SDS011;65197;50.164;8.012;2022-12-07T11:59:19;10.05;;;6.20;;
76373;SDS011;65197;50.164;8.012;2022-12-07T12:01:55;11.45;;;5.60;;
76373;SDS011;65197;50.164;8.012;2022-12-07T12:04:30;18.15;;;12.15;;
76373;SDS011;65197;50.164;8.012;2022-12-07T12:07:07;18.50;;;8.38;;
76373;SDS011;65197;50.164;8.012;2022-12-07T12:09:52;11.02;;;5.13;;
76373;SDS011;65197;50.164;8.012;2022-12-07T12:17:52;8.80;;;4.45;;
76373;SDS011;65197;50.164;8.012;2022-12-07T12:20:35;10.93;;;5.22;;
76373;SDS011;65197;50.164;8.012;2022-12-07T12:25:50;12.02;;;7.25;;
76373;SDS011;65197;50.164;8.012;2022-12-07T12:33:50;8.38;;;4.38;;
76373;SDS011;65197;50.164;8.012;2022-12-07T12:51:46;11.77;;;4.45;;
76373;SDS011;65197;50.164;8.012;2022-12-07T12:54:24;9.70;;;3.53;;
76373;SDS011;65197;50.164;8.012;2022-12-07T12:59:32;8.07;;;4.00;;
76373;SDS011;65197;50.164;8.012;2022-12-07T13:12:58;12.95;;;3.63;;
76373;SDS011;65197;50.164;8.012;2022-12-07T13:18:03;5.60;;;2.20;;
76373;SDS011;65197;50.164;8.012;2022-12-07T13:23:39;5.95;;;2.25;;
76373;SDS011;65197;50.164;8.012;2022-12-07T13:29:06;6.65;;;2.88;;
76373;SDS011;65197;50.164;8.012;2022-12-07T13:31:38;6.53;;;2.80;;
76373;SDS011;65197;50.164;8.012;2022-12-07T13:36:55;10.18;;;5.88;;
76373;SDS011;65197;50.164;8.012;2022-12-07T13:39:22;5.68;;;2.80;;
76373;SDS011;65197;50.164;8.012;2022-12-07T13:41:58;6.15;;;2.92;;
76373;SDS011;65197;50.164;8.012;2022-12-07T13:44:27;10.10;;;3.03;;
76373;SDS011;65197;50.164;8.012;2022-12-07T13:49:26;5.90;;;2.92;;
76373;SDS011;65197;50.164;8.012;2022-12-07T13:51:53;5.63;;;2.60;;
76373;SDS011;65197;50.164;8.012;2022-12-07T13:54:30;6.28;;;2.47;;
76373;SDS011;65197;50.164;8.012;2022-12-07T13:56:55;8.45;;;3.08;;
76373;SDS011;65197;50.164;8.012;2022-12-07T13:59:22;10.50;;;6.35;;
76373;SDS011;65197;50.164;8.012;2022-12-07T14:01:50;3.83;;;1.75;;
76373;SDS011;65197;50.164;8.012;2022-12-07T14:04:31;5.28;;;1.42;;
76373;SDS011;65197;50.164;8.012;2022-12-07T14:06:59;5.03;;;3.40;;
76373;SDS011;65197;50.164;8.012;2022-12-07T14:09:52;4.32;;;2.30;;
76373;SDS011;65197;50.164;8.012;2022-12-07T14:12:22;3.63;;;1.67;;
76373;SDS011;65197;50.164;8.012;2022-12-07T14:14:49;5.28;;;1.88;;
76373;SDS011;65197;50.164;8.012;2022-12-07T14:17:18;5.80;;;2.53;;
76373;SDS011;65197;50.164;8.012;2022-12-07T14:22:25;3.97;;;1.80;;
76373;SDS011;65197;50.164;8.012;2022-12-07T14:27:46;3.33;;;1.75;;
76373;SDS011;65197;50.164;8.012;2022-12-07T14:30:20;6.60;;;2.10;;
76373;SDS011;65197;50.164;8.012;2022-12-07T14:32:47;5.70;;;3.83;;
76373;SDS011;65197;50.164;8.012;2022-12-07T14:35:17;4.82;;;2.30;;
76373;SDS011;65197;50.164;8.012;2022-12-07T14:37:44;3.85;;;1.80;;
76373;SDS011;65197;50.164;8.012;2022-12-07T14:40:13;5.32;;;2.85;;
76373;SDS011;65197;50.164;8.012;2022-12-07T14:42:39;5.50;;;2.95;;
76373;SDS011;65197;50.164;8.012;2022-12-07T14:45:11;6.18;;;3.75;;
76373;SDS011;65197;50.164;8.012;2022-12-07T14:47:39;5.70;;;2.42;;
76373;SDS011;65197;50.164;8.012;2022-12-07T14:50:05;4.28;;;2.72;;
76373;SDS011;65197;50.164;8.012;2022-12-07T14:52:32;6.88;;;2.25;;
76373;SDS011;65197;50.164;8.012;2022-12-07T14:54:58;4.80;;;2.53;;
76373;SDS011;65197;50.164;8.012;2022-12-07T14:57:23;6.15;;;4.25;;
76373;SDS011;65197;50.164;8.012;2022-12-07T14:59:49;5.88;;;3.15;;
76373;SDS011;65197;50.164;8.012;2022-12-07T15:02:14;7.65;;;3.50;;
76373;SDS011;65197;50.164;8.012;2022-12-07T15:04:40;5.10;;;1.90;;
76373;SDS011;65197;50.164;8.012;2022-12-07T15:07:09;6.32;;;2.75;;
76373;SDS011;65197;50.164;8.012;2022-12-07T15:09:40;2.78;;;1.50;;
76373;SDS011;65197;50.164;8.012;2022-12-07T15:12:05;4.93;;;3.13;;
76373;SDS011;65197;50.164;8.012;2022-12-07T15:14:31;4.53;;;2.55;;
76373;SDS011;65197;50.164;8.012;2022-12-07T15:16:56;6.57;;;3.38;;
76373;SDS011;65197;50.164;8.012;2022-12-07T15:19:24;8.65;;;4.00;;
76373;SDS011;65197;50.164;8.012;2022-12-07T15:21:52;6.32;;;2.83;;
76373;SDS011;65197;50.164;8.012;2022-12-07T15:24:18;3.85;;;2.08;;
76373;SDS011;65197;50.164;8.012;2022-12-07T15:26:44;2.65;;;1.85;;
76373;SDS011;65197;50.164;8.012;2022-12-07T15:29:10;3.72;;;2.00;;
76373;SDS011;65197;50.164;8.012;2022-12-07T15:31:35;4.57;;;2.40;;
76373;SDS011;65197;50.164;8.012;2022-12-07T15:34:01;6.93;;;2.00;;
76373;SDS011;65197;50.164;8.012;2022-12-07T15:36:28;3.72;;;1.48;;
76373;SDS011;65197;50.164;8.012;2022-12-07T15:38:55;4.00;;;1.98;;
76373;SDS011;65197;50.164;8.012;2022-12-07T15:41:24;6.60;;;1.92;;
76373;SDS011;65197;50.164;8.012;2022-12-07T15:43:49;6.38;;;2.00;;
76373;SDS011;65197;50.164;8.012;2022-12-07T15:46:35;5.13;;;1.70;;
76373;SDS011;65197;50.164;8.012;2022-12-07T15:49:03;129.43;;;57.85;;
76373;SDS011;65197;50.164;8.012;2022-12-07T15:51:34;21.52;;;10.60;;
76373;SDS011;65197;50.164;8.012;2022-12-07T15:53:59;6.32;;;3.50;;
76373;SDS011;65197;50.164;8.012;2022-12-07T15:56:25;3.58;;;2.65;;
76373;SDS011;65197;50.164;8.012;2022-12-07T15:58:50;7.07;;;5.15;;
76373;SDS011;65197;50.164;8.012;2022-12-07T16:01:17;7.85;;;3.67;;
76373;SDS011;65197;50.164;8.012;2022-12-07T16:03:44;20.90;;;14.18;;
76373;SDS011;65197;50.164;8.012;2022-12-07T16:06:10;7.60;;;2.85;;
76373;SDS011;65197;50.164;8.012;2022-12-07T16:08:36;19.70;;;11.57;;
76373;SDS011;65197;50.164;8.012;2022-12-07T16:11:07;16.17;;;7.30;;
76373;SDS011;65197;50.164;8.012;2022-12-07T16:13:33;11.85;;;6.20;;
76373;SDS011;65197;50.164;8.012;2022-12-07T16:16:02;8.50;;;2.65;;
76373;SDS011;65197;50.164;8.012;2022-12-07T16:18:41;7.03;;;3.38;;
76373;SDS011;65197;50.164;8.012;2022-12-07T16:23:33;7.83;;;2.80;;
76373;SDS011;65197;50.164;8.012;2022-12-07T16:26:05;6.53;;;2.75;;
76373;SDS011;65197;50.164;8.012;2022-12-07T16:28:31;8.93;;;5.53;;
76373;SDS011;65197;50.164;8.012;2022-12-07T16:31:00;7.18;;;3.63;;
76373;SDS011;65197;50.164;8.012;2022-12-07T16:33:31;7.63;;;3.22;;
76373;SDS011;65197;50.164;8.012;2022-12-07T16:36:01;7.85;;;3.53;;
76373;SDS011;65197;50.164;8.012;2022-12-07T16:38:26;8.65;;;2.58;;
76373;SDS011;65197;50.164;8.012;2022-12-07T16:40:52;8.05;;;2.88;;
76373;SDS011;65197;50.164;8.012;2022-12-07T16:43:18;8.50;;;2.90;;
76373;SDS011;65197;50.164;8.012;2022-12-07T16:45:44;8.85;;;3.17;;
76373;SDS011;65197;50.164;8.012;2022-12-07T16:48:12;7.53;;;2.88;;
76373;SDS011;65197;50.164;8.012;2022-12-07T16:50:41;32.03;;;13.77;;
76373;SDS011;65197;50.164;8.012;2022-12-07T16:53:07;12.45;;;7.63;;
76373;SDS011;65197;50.164;8.012;2022-12-07T16:55:40;7.32;;;3.92;;
76373;SDS011;65197;50.164;8.012;2022-12-07T16:58:07;12.02;;;6.25;;
76373;SDS011;65197;50.164;8.012;2022-12-07T17:00:33;13.88;;;4.75;;
76373;SDS011;65197;50.164;8.012;2022-12-07T17:02:59;9.30;;;4.15;;
76373;SDS011;65197;50.164;8.012;2022-12-07T17:05:25;7.10;;;3.58;;
76373;SDS011;65197;50.164;8.012;2022-12-07T17:07:53;11.85;;;6.18;;